Flight Track Log - Related Links

Times and Time Zones

All times are in EST time to prevent confusion due to time zone crossing. See the GAO2726 flight status page for this flight to view local times or setup timezone preferences in your user account.

Time Position Orientation Groundspeed Altitude Reporting Facility
EST Latitude Longitude Course Direction KTS MPH feet Rate Location/Type
Mon 01:15:00 PM 59.8354 18.7678 66° East  Level Estimated
Mon 01:16:00 PM 59.8804 18.9815 67° East  Level Estimated
Mon 01:17:00 PM 59.9250 19.1959 67° East  Level Estimated
Mon 01:18:00 PM 59.9693 19.4108 68° East  Level Estimated
Mon 01:19:00 PM 60.0133 19.6262 68° East  Level Estimated
Mon 01:20:00 PM 60.0569 19.8423 68° East  Level Estimated
Mon 01:21:00 PM 60.1002 20.0589 68° East  Level Estimated
Mon 01:22:00 PM 60.1431 20.2761 68° East  Level Estimated
Mon 01:23:00 PM 60.1856 20.4938 68° East  Level Estimated
Mon 01:24:00 PM 60.2278 20.7121 69° East  Level Estimated
Mon 01:25:00 PM 60.2696 20.9310 69° East  Level Estimated
Mon 01:26:00 PM 60.3111 21.1504 69° East  Level Estimated
Mon 01:27:00 PM 60.3522 21.3704 69° East  Level Estimated
Mon 01:28:00 PM 60.3929 21.5909 69° East  Level Estimated
Mon 01:29:00 PM 60.4333 21.8120 70° East  Level Estimated
Mon 01:30:00 PM 60.4733 22.0336 70° East  Level Estimated
Mon 01:31:00 PM 60.5129 22.2558 70° East  Level Estimated
Mon 01:32:00 PM 60.5141 22.2628 70° East  Level Estimated
Mon 01:33:00 PM 60.5141 22.2628 334° Northwest  Level Estimated
Mon 01:34:00 PM 60.5141 22.2628 334° Northwest  Level Estimated
Mon 01:35:00 PM 60.5141 22.2628 334° Northwest  Level Estimated
Mon 01:36:00 PM 60.5141 22.2628 334° Northwest  Level Estimated
Mon 01:37:00 PM 60.5141 22.2628 334° Northwest  Level Estimated
Mon 01:38:00 PM 60.5141 22.2628 334° Northwest  Level Estimated
Mon 01:39:00 PM 60.5141 22.2628 334° Northwest  Level Estimated
Mon 01:40:00 PM 60.5141 22.2628 334° Northwest  Level Estimated
Mon 01:41:00 PM 60.5141 22.2628 334° Northwest  Level Estimated
Mon 01:42:00 PM 60.5141 22.2628 334° Northwest  Level Estimated
Mon 01:43:00 PM 60.5141 22.2628 334° Northwest  Level Estimated
Mon 01:44:00 PM 60.5141 22.2628 334° Northwest  Level Estimated
Mon 01:45:00 PM 60.5141 22.2628 334° Northwest  Level Estimated
Mon 01:46:00 PM 60.5141 22.2628 334° Northwest  Level Estimated
Mon 01:47:00 PM 60.5141 22.2628 334° Northwest  Level Estimated

Login

Don't have an account? Register now (free) for customized features, flight alerts, and more!